createdAt,value
2023-01-01T00:00:33.821Z,13.19
2023-01-01T00:01:33.404Z,13.27
2023-01-01T00:02:41.065Z,13.28
2023-01-01T00:03:33.749Z,13.31
2023-01-01T00:04:33.104Z,13.28
2023-01-01T00:05:33.587Z,13.28
2023-01-01T00:06:33.294Z,13.28
2023-01-01T00:07:33.292Z,13.29
2023-01-01T00:08:33.342Z,13.37
2023-01-01T00:09:33.525Z,13.37
2023-01-01T00:10:33.599Z,13.42
2023-01-01T00:11:33.028Z,13.44
2023-01-01T00:12:33.496Z,13.51
2023-01-01T00:13:33.321Z,13.47
2023-01-01T00:14:33.490Z,13.44
2023-01-01T00:15:33.560Z,13.45
2023-01-01T00:16:33.078Z,13.45
2023-01-01T00:17:33.223Z,13.45
2023-01-01T00:18:33.209Z,13.4
2023-01-01T00:19:33.214Z,13.39
2023-01-01T00:20:39.720Z,13.39
2023-01-01T00:21:33.150Z,13.4
2023-01-01T00:22:59.302Z,13.39
2023-01-01T00:23:33.426Z,13.37
2023-01-01T00:24:33.145Z,13.31
2023-01-01T00:25:33.374Z,13.37
2023-01-01T00:26:39.643Z,13.21
2023-01-01T00:27:33.091Z,13.25
2023-01-01T00:28:33.339Z,13.2
2023-01-01T00:29:33.372Z,13.14
2023-01-01T00:30:33.319Z,13.27
2023-01-01T00:31:33.356Z,13.16
2023-01-01T00:32:33.431Z,13.07
2023-01-01T00:33:33.310Z,13.02
2023-01-01T00:34:32.766Z,13.09
2023-01-01T00:35:33.030Z,13.09
2023-01-01T00:36:33.024Z,13.1
2023-01-01T00:37:33.248Z,13.13
2023-01-01T00:38:32.975Z,13.03
2023-01-01T00:39:33.279Z,13.09
2023-01-01T00:40:33.224Z,13.09
2023-01-01T00:41:32.980Z,12.99
2023-01-01T00:42:32.694Z,12.95
2023-01-01T00:43:33.212Z,12.96
2023-01-01T00:44:33.237Z,12.94
2023-01-01T00:45:33.307Z,12.99
2023-01-01T00:46:33.200Z,12.92
2023-01-01T00:47:33.144Z,12.88
2023-01-01T00:48:33.148Z,12.95
2023-01-01T00:49:33.164Z,12.86
2023-01-01T00:50:33.189Z,12.86
2023-01-01T00:51:39.819Z,12.89
2023-01-01T00:52:32.611Z,12.78
2023-01-01T00:53:32.865Z,12.74
2023-01-01T00:54:33.079Z,12.74
2023-01-01T00:55:32.818Z,12.7
2023-01-01T00:56:33.076Z,12.63
2023-01-01T00:57:32.789Z,12.73
2023-01-01T00:58:33.051Z,12.7
2023-01-01T00:59:34.061Z,12.62
2023-01-01T01:00:32.526Z,12.62
2023-01-01T01:01:33.163Z,12.69
2023-01-01T01:02:33.323Z,12.59
2023-01-01T01:03:33.606Z,12.52
2023-01-01T01:04:33.011Z,12.47
2023-01-01T01:05:32.999Z,12.53
2023-01-01T01:06:32.724Z,12.51
2023-01-01T01:07:32.697Z,12.53
2023-01-01T01:08:35.898Z,12.53
2023-01-01T01:09:32.953Z,12.51
2023-01-01T01:10:32.913Z,12.52
2023-01-01T01:11:32.903Z,12.48
2023-01-01T01:12:32.642Z,12.55
2023-01-01T01:13:32.875Z,12.55
2023-01-01T01:14:33.379Z,12.48
2023-01-01T01:15:33.396Z,12.48
2023-01-01T01:16:33.110Z,12.45
2023-01-01T01:17:33.184Z,12.44
2023-01-01T01:18:32.817Z,12.4
2023-01-01T01:19:32.819Z,12.44
2023-01-01T01:20:33.053Z,12.44
2023-01-01T01:21:33.359Z,12.43
2023-01-01T01:22:33.921Z,12.44
2023-01-01T01:23:33.288Z,12.4
2023-01-01T01:24:33.061Z,12.36
2023-01-01T01:25:33.007Z,12.41
2023-01-01T01:26:33.252Z,12.41
2023-01-01T01:27:32.997Z,12.4
2023-01-01T01:28:33.231Z,12.41
2023-01-01T01:29:33.251Z,12.4
2023-01-01T01:30:33.176Z,12.38
2023-01-01T01:31:33.266Z,12.41
2023-01-01T01:32:32.950Z,12.43
2023-01-01T01:34:33.483Z,12.43
2023-01-01T01:35:33.162Z,12.26
2023-01-01T01:36:33.190Z,12.4
2023-01-01T01:37:33.185Z,12.41
2023-01-01T01:38:32.878Z,12.43
2023-01-01T01:39:32.927Z,12.37
2023-01-01T01:40:33.115Z,12.38
2023-01-01T01:41:33.872Z,12.29
2023-01-01T01:42:32.825Z,12.34
2023-01-01T01:43:32.819Z,12.38
2023-01-01T01:44:33.061Z,12.34
2023-01-01T01:45:37.969Z,12.31
2023-01-01T01:46:32.743Z,12.28
2023-01-01T01:47:33.096Z,12.34
2023-01-01T01:48:33.032Z,12.28
2023-01-01T01:49:33.069Z,12.31
2023-01-01T01:50:33.032Z,12.31
2023-01-01T01:51:32.730Z,12.36
2023-01-01T01:52:32.463Z,12.2
2023-01-01T01:53:32.746Z,12.22
2023-01-01T01:54:32.465Z,12.22
2023-01-01T01:55:32.460Z,12.26
2023-01-01T01:56:32.976Z,12.34
2023-01-01T01:57:32.953Z,12.31
2023-01-01T01:58:32.918Z,12.31
2023-01-01T01:59:32.674Z,12.36
2023-01-01T02:00:32.658Z,12.26
2023-01-01T02:01:32.796Z,12.26
2023-01-01T02:02:33.265Z,12.22
2023-01-01T02:03:33.020Z,12.15
2023-01-01T02:04:32.884Z,12.13
2023-01-01T02:05:32.674Z,12.23
2023-01-01T02:06:32.880Z,12.23
2023-01-01T02:07:32.826Z,12.23
2023-01-01T02:08:32.578Z,12.25
2023-01-01T02:09:32.842Z,12.22
2023-01-01T02:10:32.561Z,12.29
2023-01-01T02:11:32.536Z,12.33
2023-01-01T02:12:32.805Z,12.29
2023-01-01T02:13:32.771Z,12.29
2023-01-01T02:14:32.751Z,12.34
2023-01-01T02:15:32.500Z,12.34
2023-01-01T02:16:32.747Z,12.28
2023-01-01T02:17:39.728Z,12.29
2023-01-01T02:18:32.709Z,12.37
2023-01-01T02:19:32.458Z,12.25
2023-01-01T02:20:32.429Z,12.23
2023-01-01T02:21:32.545Z,12.2
2023-01-01T02:22:32.175Z,12.2
2023-01-01T02:23:32.405Z,12.16
2023-01-01T02:24:32.651Z,12.18
2023-01-01T02:25:32.683Z,12.16
2023-01-01T02:26:32.619Z,12.15
2023-01-01T02:27:32.375Z,12.15
2023-01-01T02:28:32.607Z,12.23
2023-01-01T02:29:32.366Z,12.25
2023-01-01T02:30:32.538Z,12.29
2023-01-01T02:31:32.976Z,12.28
2023-01-01T02:32:33.025Z,12.25
2023-01-01T02:33:33.017Z,12.34
2023-01-01T02:34:32.992Z,12.31
2023-01-01T02:35:32.731Z,12.36
2023-01-01T02:36:32.734Z,12.34
2023-01-01T02:37:32.992Z,12.34
2023-01-01T02:38:32.738Z,12.29
2023-01-01T02:39:32.681Z,12.38
2023-01-01T02:40:32.688Z,12.29
2023-01-01T02:41:32.985Z,12.28
2023-01-01T02:42:32.903Z,12.33
2023-01-01T02:43:32.905Z,12.2
2023-01-01T02:44:32.900Z,12.25
2023-01-01T02:45:32.366Z,12.25
2023-01-01T02:46:32.916Z,12.19
2023-01-01T02:47:32.868Z,12.26
2023-01-01T02:48:32.617Z,12.29
2023-01-01T02:49:32.585Z,12.2
2023-01-01T02:50:32.845Z,12.2
2023-01-01T02:51:32.546Z,12.31
2023-01-01T02:52:32.551Z,12.25
2023-01-01T02:53:32.565Z,12.29
2023-01-01T02:54:32.545Z,12.31
2023-01-01T02:55:32.774Z,12.15
2023-01-01T02:56:32.522Z,12.2
2023-01-01T02:57:32.799Z,12.18
2023-01-01T02:58:32.483Z,12.16
2023-01-01T02:59:32.726Z,12.2
2023-01-01T03:00:32.948Z,12.26
2023-01-01T03:01:32.842Z,12.26
2023-01-01T03:02:33.179Z,12.28
2023-01-01T03:03:32.574Z,12.25
2023-01-01T03:04:32.679Z,12.19
2023-01-01T03:05:32.440Z,12.22
2023-01-01T03:06:32.676Z,12.16
2023-01-01T03:07:32.661Z,12.16
2023-01-01T03:08:32.635Z,12.11
2023-01-01T03:09:32.661Z,12.22
2023-01-01T03:10:32.642Z,12.15
2023-01-01T03:11:32.343Z,12.16
2023-01-01T03:12:32.088Z,12.2
2023-01-01T03:13:32.606Z,12.2
2023-01-01T03:14:32.623Z,12.18
2023-01-01T03:15:33.084Z,12.13
2023-01-01T03:16:32.804Z,12.11
2023-01-01T03:17:32.793Z,12.05
2023-01-01T03:18:32.524Z,12.15
2023-01-01T03:19:32.751Z,12.16
2023-01-01T03:20:32.491Z,12.15
2023-01-01T03:21:32.751Z,12.19
2023-01-01T03:22:32.737Z,12.13
2023-01-01T03:23:32.762Z,12.13
2023-01-01T03:24:32.707Z,12.07
2023-01-01T03:25:32.713Z,12.01
2023-01-01T03:26:32.460Z,12.11
2023-01-01T03:27:32.708Z,12.04
2023-01-01T03:28:32.710Z,12.05
2023-01-01T03:29:32.520Z,12.1
2023-01-01T03:30:32.681Z,12
2023-01-01T03:31:32.837Z,12.03
2023-01-01T03:32:32.364Z,12.04
2023-01-01T03:49:09.502Z,11.85
2023-01-01T03:50:07.899Z,11.73
2023-01-01T03:51:08.107Z,11.7
2023-01-01T03:52:07.840Z,11.7
2023-01-01T03:53:07.830Z,11.68
2023-01-01T03:54:08.156Z,11.71
2023-01-01T03:55:07.802Z,11.79
2023-01-01T03:56:08.040Z,11.82
2023-01-01T03:57:08.039Z,11.86
2023-01-01T03:58:08.037Z,11.85
2023-01-01T03:59:08.092Z,11.84
2023-01-01T04:00:08.039Z,11.91
2023-01-01T04:01:07.891Z,11.85
2023-01-01T04:02:07.912Z,11.86
2023-01-01T04:03:07.972Z,11.89
2023-01-01T04:04:07.991Z,11.88
2023-01-01T04:05:08.032Z,11.79
2023-01-01T04:06:07.974Z,11.82
2023-01-01T04:07:19.745Z,11.79
2023-01-01T04:08:07.649Z,11.67
2023-01-01T04:09:07.961Z,11.64
2023-01-01T04:10:07.358Z,11.76
2023-01-01T04:11:07.601Z,11.82
2023-01-01T04:12:07.598Z,11.7
2023-01-01T04:13:07.594Z,11.67
2023-01-01T04:14:07.834Z,11.68
2023-01-01T04:15:07.803Z,11.7
2023-01-01T04:16:07.974Z,11.66
2023-01-01T04:17:07.806Z,11.7
2023-01-01T04:18:07.525Z,11.64
2023-01-01T04:19:07.852Z,11.66
2023-01-01T04:20:07.769Z,11.71
2023-01-01T04:21:07.811Z,11.71
2023-01-01T04:22:07.534Z,11.66
2023-01-01T04:23:07.759Z,11.63
2023-01-01T04:24:07.212Z,11.76
2023-01-01T04:25:07.738Z,11.75
2023-01-01T04:26:07.450Z,11.73
2023-01-01T04:27:07.441Z,11.66
2023-01-01T04:28:07.661Z,11.71
2023-01-01T04:29:07.164Z,11.81
2023-01-01T04:30:07.432Z,11.76
2023-01-01T04:31:07.630Z,11.75
2023-01-01T04:32:07.354Z,11.78
2023-01-01T04:33:07.640Z,11.75
2023-01-01T04:34:07.685Z,11.86
2023-01-01T04:35:07.318Z,11.78
2023-01-01T04:36:07.315Z,11.73
2023-01-01T04:37:15.917Z,11.75
2023-01-01T04:38:07.296Z,11.67
2023-01-01T04:39:07.549Z,11.76
2023-01-01T04:40:07.288Z,11.81
2023-01-01T04:41:07.013Z,11.78
2023-01-01T04:42:06.990Z,11.75
2023-01-01T04:43:07.513Z,11.78
2023-01-01T04:44:07.586Z,11.78
2023-01-01T04:45:07.238Z,11.63
2023-01-01T04:46:07.427Z,11.66
2023-01-01T04:47:07.460Z,11.7
2023-01-01T04:48:07.449Z,11.68
2023-01-01T04:49:07.584Z,11.66
2023-01-01T04:50:07.167Z,11.64
2023-01-01T04:51:07.142Z,11.66
2023-01-01T04:52:07.137Z,11.66
2023-01-01T04:53:07.458Z,11.7
2023-01-01T04:54:07.473Z,11.75
2023-01-01T04:55:07.355Z,11.63
2023-01-01T04:56:07.358Z,11.7
2023-01-01T04:57:07.355Z,11.71
2023-01-01T04:58:07.322Z,11.7
2023-01-01T04:59:07.127Z,11.68
2023-01-01T05:00:07.380Z,11.66
2023-01-01T05:01:07.674Z,11.67
2023-01-01T05:02:07.956Z,11.64
2023-01-01T05:03:07.485Z,11.66
2023-01-01T05:04:07.497Z,11.66
2023-01-01T05:05:07.267Z,11.68
2023-01-01T05:06:07.251Z,11.63
2023-01-01T05:07:06.964Z,11.66
2023-01-01T05:08:06.961Z,11.66
2023-01-01T05:09:07.420Z,11.67
2023-01-01T05:10:06.982Z,11.68
2023-01-01T05:11:07.194Z,11.64
2023-01-01T05:12:06.908Z,11.7
2023-01-01T05:13:06.639Z,11.63
2023-01-01T05:14:06.894Z,11.57
2023-01-01T05:15:07.137Z,11.59
2023-01-01T05:16:08.021Z,11.53
2023-01-01T05:17:08.089Z,11.57
2023-01-01T05:18:07.810Z,11.53
2023-01-01T05:19:07.798Z,11.53
2023-01-01T05:20:07.531Z,11.51
2023-01-01T05:21:08.033Z,11.59
2023-01-01T05:22:14.952Z,11.56
2023-01-01T05:23:07.777Z,11.53
2023-01-01T05:24:08.016Z,11.53
2023-01-01T05:25:08.077Z,11.61
2023-01-01T05:26:07.714Z,11.56
2023-01-01T05:27:07.977Z,11.59
2023-01-01T05:28:07.689Z,11.56
2023-01-01T05:29:17.170Z,11.63
2023-01-01T05:30:07.673Z,11.6
2023-01-01T05:31:07.908Z,11.61
2023-01-01T05:33:07.633Z,11.64
2023-01-01T05:35:07.878Z,11.71
2023-01-01T05:36:07.613Z,11.73
2023-01-01T05:37:07.837Z,11.73
2023-01-01T05:38:07.711Z,11.81
2023-01-01T05:39:07.985Z,11.81
2023-01-01T05:40:07.992Z,11.79
2023-01-01T05:41:08.014Z,11.81
2023-01-01T05:42:07.674Z,11.81
2023-01-01T05:43:07.930Z,11.81
2023-01-01T05:44:07.665Z,11.81
2023-01-01T05:45:07.913Z,11.76
2023-01-01T05:46:07.862Z,11.81
2023-01-01T05:47:07.619Z,11.88
2023-01-01T05:48:07.861Z,11.85
2023-01-01T05:49:07.584Z,11.78
2023-01-01T05:51:07.562Z,11.79
2023-01-01T05:52:07.815Z,11.67
2023-01-01T05:53:07.833Z,11.67
2023-01-01T05:54:07.794Z,11.7
2023-01-01T05:55:07.521Z,11.66
2023-01-01T05:56:07.540Z,11.73
2023-01-01T05:57:07.822Z,11.76
2023-01-01T05:58:07.742Z,11.78
2023-01-01T05:59:07.763Z,11.75
2023-01-01T06:00:07.712Z,11.78
2023-01-01T06:01:07.668Z,11.81
2023-01-01T06:02:08.107Z,11.81
2023-01-01T06:03:07.428Z,11.78
2023-01-01T06:04:07.576Z,11.76
2023-01-01T06:05:07.655Z,11.66
2023-01-01T06:06:07.676Z,11.68
2023-01-01T06:07:07.647Z,11.61
2023-01-01T06:08:07.375Z,11.63
2023-01-01T06:09:07.373Z,11.63
2023-01-01T06:10:07.354Z,11.67
2023-01-01T06:11:07.641Z,11.68
2023-01-01T06:12:07.592Z,11.64
2023-01-01T06:13:15.826Z,11.63
2023-01-01T06:14:07.321Z,11.64
2023-01-01T06:15:07.289Z,11.66
2023-01-01T06:16:07.558Z,11.64
2023-01-01T06:17:07.720Z,11.71
2023-01-01T06:18:07.267Z,11.73
2023-01-01T06:19:07.516Z,11.68
2023-01-01T06:20:07.526Z,11.64
2023-01-01T06:21:07.245Z,11.6
2023-01-01T06:22:07.513Z,11.64
2023-01-01T06:23:07.217Z,11.6
2023-01-01T06:24:07.464Z,11.51
2023-01-01T06:25:07.455Z,11.6
2023-01-01T06:26:07.426Z,11.59
2023-01-01T06:27:07.411Z,11.63
2023-01-01T06:28:07.148Z,11.52
2023-01-01T06:29:07.475Z,11.67
2023-01-01T06:30:07.463Z,11.67
2023-01-01T06:31:07.709Z,11.68
2023-01-01T06:32:07.357Z,11.57
2023-01-01T06:33:07.116Z,11.66
2023-01-01T06:34:07.085Z,11.61
2023-01-01T06:35:07.059Z,11.6
2023-01-01T06:36:07.376Z,11.61
2023-01-01T06:37:11.620Z,11.61
2023-01-01T06:38:07.297Z,11.63
2023-01-01T06:39:07.025Z,11.63
2023-01-01T06:40:07.292Z,11.59
2023-01-01T06:41:07.269Z,11.57
2023-01-01T06:42:07.245Z,11.56
2023-01-01T06:43:07.525Z,11.51
2023-01-01T06:44:06.993Z,11.42
2023-01-01T06:45:07.285Z,11.53
2023-01-01T06:46:07.463Z,11.49
2023-01-01T06:47:07.182Z,11.52
2023-01-01T06:48:07.177Z,11.42
2023-01-01T06:49:07.219Z,11.42
2023-01-01T06:50:06.892Z,11.39
2023-01-01T06:51:07.134Z,11.39
2023-01-01T06:52:06.869Z,11.43
2023-01-01T06:53:06.858Z,11.49
2023-01-01T06:54:07.150Z,11.59
2023-01-01T06:55:07.077Z,11.56
2023-01-01T06:56:07.126Z,11.51
2023-01-01T06:57:06.819Z,11.46
2023-01-01T06:58:06.833Z,11.46
2023-01-01T06:59:06.832Z,11.39
2023-01-01T07:00:07.065Z,11.53
2023-01-01T07:01:13.263Z,11.46
2023-01-01T07:02:07.380Z,11.51
2023-01-01T07:03:07.763Z,11.49
2023-01-01T07:04:06.987Z,11.42
2023-01-01T07:05:06.476Z,11.43
2023-01-01T07:06:06.716Z,11.51
2023-01-01T07:07:06.988Z,11.45
2023-01-01T07:08:06.445Z,11.35
2023-01-01T07:09:06.688Z,11.52
2023-01-01T07:10:06.743Z,11.41
2023-01-01T07:11:06.909Z,11.49
2023-01-01T07:12:06.647Z,11.41
2023-01-01T07:13:06.627Z,11.39
2023-01-01T07:14:06.878Z,11.42
2023-01-01T07:15:06.637Z,11.52
2023-01-01T07:16:15.791Z,11.39
2023-01-01T07:17:06.918Z,11.49
2023-01-01T07:18:06.567Z,11.52
2023-01-01T07:19:06.570Z,11.48
2023-01-01T07:20:06.310Z,11.51
2023-01-01T07:21:06.819Z,11.49
2023-01-01T07:22:06.797Z,11.46
2023-01-01T07:23:06.506Z,11.57
2023-01-01T07:24:06.543Z,11.52
2023-01-01T07:25:06.485Z,11.52
2023-01-01T07:26:06.513Z,11.53
2023-01-01T07:27:06.710Z,11.59
2023-01-01T07:28:06.465Z,11.48
2023-01-01T07:29:12.828Z,11.59
2023-01-01T07:30:06.689Z,11.57
2023-01-01T07:31:06.809Z,11.49
2023-01-01T07:32:06.445Z,11.48
2023-01-01T07:33:06.703Z,11.6
2023-01-01T07:34:06.659Z,11.53
2023-01-01T07:35:06.384Z,11.52
2023-01-01T07:36:06.621Z,11.53
2023-01-01T07:37:06.639Z,11.68
2023-01-01T07:38:06.593Z,11.63
2023-01-01T07:39:06.133Z,11.68
2023-01-01T07:40:06.572Z,11.63
2023-01-01T07:41:06.309Z,11.67
2023-01-01T07:42:13.321Z,11.67
2023-01-01T07:43:06.288Z,11.64
2023-01-01T07:44:06.337Z,11.7
2023-01-01T07:45:06.263Z,11.68
2023-01-01T07:46:06.655Z,11.75
2023-01-01T07:47:06.254Z,11.81
2023-01-01T07:48:06.280Z,11.84
2023-01-01T07:49:06.511Z,11.81
2023-01-01T07:50:06.459Z,11.85
2023-01-01T07:51:06.195Z,11.79
2023-01-01T07:52:06.190Z,11.82
2023-01-01T07:53:06.199Z,11.95
2023-01-01T07:54:11.891Z,11.97
2023-01-01T07:55:06.401Z,12
2023-01-01T07:56:05.970Z,11.95
2023-01-01T07:57:06.117Z,12.01
2023-01-01T07:58:06.387Z,12.05
2023-01-01T07:59:06.404Z,12
2023-01-01T08:00:06.360Z,12.04
2023-01-01T08:01:06.356Z,12.04
2023-01-01T08:02:06.664Z,11.98
2023-01-01T08:03:06.344Z,12.03
2023-01-01T08:04:06.324Z,12.03
2023-01-01T08:05:06.351Z,12.04
2023-01-01T08:06:06.029Z,11.95
2023-01-01T08:07:06.307Z,12.01
2023-01-01T08:08:06.261Z,12.07
2023-01-01T08:09:06.025Z,12.15
2023-01-01T08:10:06.250Z,12.13
2023-01-01T08:11:08.983Z,12.13
2023-01-01T08:12:05.724Z,12.16
2023-01-01T08:13:05.973Z,12.16
2023-01-01T08:14:05.988Z,12.16
2023-01-01T08:15:06.188Z,12.23
2023-01-01T08:16:06.212Z,12.23
2023-01-01T08:17:06.159Z,12.31
2023-01-01T08:18:05.624Z,12.36
2023-01-01T08:19:05.883Z,12.34
2023-01-01T08:20:06.251Z,12.29
2023-01-01T08:21:06.273Z,12.38
2023-01-01T08:22:05.923Z,12.38
2023-01-01T08:23:11.593Z,12.37
2023-01-01T08:24:06.071Z,12.28
2023-01-01T08:25:06.061Z,12.44
2023-01-01T08:26:06.076Z,12.43
2023-01-01T08:27:06.043Z,12.4
2023-01-01T08:28:06.035Z,12.44
2023-01-01T08:29:06.056Z,12.44
2023-01-01T08:30:05.525Z,12.44
2023-01-01T08:31:05.965Z,12.52
2023-01-01T08:32:06.002Z,12.58
2023-01-01T08:33:05.978Z,12.53
2023-01-01T08:34:05.697Z,12.52
2023-01-01T08:35:05.955Z,12.56
2023-01-01T08:36:05.977Z,12.56
2023-01-01T08:37:06.009Z,12.59
2023-01-01T08:38:05.945Z,12.66
2023-01-01T08:39:05.915Z,12.61
2023-01-01T08:40:05.660Z,12.62
2023-01-01T08:41:05.901Z,12.73
2023-01-01T08:42:12.453Z,12.7
2023-01-01T08:43:05.878Z,12.74
2023-01-01T08:44:05.859Z,12.7
2023-01-01T08:45:05.852Z,12.71
2023-01-01T08:46:05.586Z,12.74
2023-01-01T08:47:06.049Z,12.77
2023-01-01T08:48:05.830Z,12.76
2023-01-01T08:49:05.815Z,12.71
2023-01-01T08:50:05.835Z,12.81
2023-01-01T08:51:05.583Z,12.8
2023-01-01T08:52:05.545Z,12.91
2023-01-01T08:53:06.039Z,12.88
2023-01-01T08:54:05.986Z,12.94
2023-01-01T08:55:05.769Z,12.88
2023-01-01T08:56:05.930Z,12.96
2023-01-01T08:57:05.720Z,12.95
2023-01-01T08:58:05.401Z,12.98
2023-01-01T08:59:09.079Z,12.96
2023-01-01T09:00:05.896Z,12.94
2023-01-01T09:01:05.869Z,12.98
2023-01-01T09:02:06.587Z,12.95
2023-01-01T09:03:06.080Z,13.03
2023-01-01T09:04:08.013Z,13.03
2023-01-01T09:05:05.852Z,13.09
2023-01-01T09:06:05.340Z,13.03
2023-01-01T09:07:05.823Z,13.09
2023-01-01T09:08:05.837Z,13.09
2023-01-01T09:09:05.866Z,13.07
2023-01-01T09:10:05.542Z,13.1
2023-01-01T09:11:05.553Z,13.09
2023-01-01T09:12:05.517Z,13.11
2023-01-01T09:13:05.750Z,13.13
2023-01-01T09:14:05.756Z,13.27
2023-01-01T09:15:05.732Z,13.19
2023-01-01T09:16:05.762Z,13.16
2023-01-01T09:17:05.201Z,13.2
2023-01-01T09:18:05.733Z,13.25
2023-01-01T09:19:05.465Z,13.27
2023-01-01T09:20:05.699Z,13.17
2023-01-01T09:21:05.427Z,13.21
2023-01-01T09:22:05.432Z,13.27
2023-01-01T09:23:10.417Z,13.24
2023-01-01T09:24:05.657Z,13.31
2023-01-01T09:25:05.698Z,13.27
2023-01-01T09:26:05.401Z,13.37
2023-01-01T09:27:05.354Z,13.32
2023-01-01T09:28:05.613Z,13.27
2023-01-01T09:29:05.650Z,13.27
2023-01-01T09:30:05.675Z,13.31
2023-01-01T09:31:05.381Z,13.32
2023-01-01T09:32:05.564Z,13.29
2023-01-01T09:33:05.317Z,13.37
2023-01-01T09:34:05.057Z,13.4
2023-01-01T09:35:05.578Z,13.4
2023-01-01T09:36:05.524Z,13.44
2023-01-01T09:37:05.268Z,13.42
2023-01-01T09:38:05.291Z,13.5
2023-01-01T09:39:05.532Z,13.53
2023-01-01T09:40:05.240Z,13.54
2023-01-01T09:41:05.571Z,13.39
2023-01-01T09:42:05.468Z,13.51
2023-01-01T09:43:05.208Z,13.47
2023-01-01T09:44:05.448Z,13.51
2023-01-01T09:45:04.953Z,13.47
2023-01-01T09:46:05.637Z,13.57
2023-01-01T09:47:05.180Z,13.51
2023-01-01T09:48:05.187Z,13.58
2023-01-01T09:49:05.415Z,13.55
2023-01-01T09:50:05.179Z,13.6
2023-01-01T09:51:05.152Z,13.66
2023-01-01T09:52:05.403Z,13.73
2023-01-01T09:53:05.407Z,13.6
2023-01-01T09:54:05.375Z,13.68
2023-01-01T09:55:05.127Z,13.68
2023-01-01T09:56:05.103Z,13.69
2023-01-01T09:57:05.377Z,13.76
2023-01-01T09:58:05.313Z,13.75
2023-01-01T09:59:05.311Z,13.83
2023-01-01T10:00:05.282Z,13.78
2023-01-01T10:01:05.742Z,13.83
2023-01-01T10:02:05.507Z,13.86
2023-01-01T10:03:05.031Z,13.78
2023-01-01T10:04:05.417Z,13.88
2023-01-01T10:05:05.015Z,13.86
2023-01-01T10:06:04.975Z,13.93
2023-01-01T10:07:04.986Z,13.95
2023-01-01T10:08:04.962Z,13.93
2023-01-01T10:09:05.216Z,14.01
2023-01-01T10:10:04.948Z,13.97
2023-01-01T10:11:05.350Z,13.99
2023-01-01T10:12:04.697Z,14.02
2023-01-01T10:13:05.225Z,13.97
2023-01-01T10:14:05.145Z,13.97
2023-01-01T10:15:05.582Z,13.99
2023-01-01T10:16:06.385Z,13.87
2023-01-01T10:17:05.253Z,13.94
2023-01-01T10:18:04.886Z,13.94
2023-01-01T10:19:05.140Z,13.95
2023-01-01T10:20:05.512Z,13.87
2023-01-01T10:21:05.479Z,13.86
2023-01-01T10:22:05.506Z,13.78
2023-01-01T10:23:05.231Z,13.81
2023-01-01T10:24:05.444Z,13.81
2023-01-01T10:25:05.439Z,13.79
2023-01-01T10:26:05.436Z,13.81
2023-01-01T10:27:05.450Z,13.76
2023-01-01T10:28:05.417Z,13.69
2023-01-01T10:29:05.462Z,13.7
2023-01-01T10:30:09.173Z,13.81
2023-01-01T10:31:05.412Z,13.76
2023-01-01T10:32:05.211Z,13.7
2023-01-01T10:33:05.144Z,13.75
2023-01-01T10:34:05.366Z,13.7
2023-01-01T10:35:05.343Z,13.7
2023-01-01T10:36:05.334Z,13.69
2023-01-01T10:37:05.090Z,13.78
2023-01-01T10:38:05.317Z,13.7
2023-01-01T10:39:05.314Z,13.7
2023-01-01T10:40:05.311Z,13.7
2023-01-01T10:41:05.072Z,13.62
2023-01-01T10:42:05.952Z,13.68
2023-01-01T10:43:06.010Z,13.72
2023-01-01T10:44:05.667Z,13.69
2023-01-01T10:45:05.961Z,13.63
2023-01-01T10:46:06.186Z,13.63
2023-01-01T10:47:05.675Z,13.69
2023-01-01T10:48:05.631Z,13.63
2023-01-01T10:49:05.366Z,13.6
2023-01-01T10:50:05.624Z,13.57
2023-01-01T10:51:05.589Z,13.53
2023-01-01T10:52:05.870Z,13.63
2023-01-01T10:53:05.589Z,13.6
2023-01-01T10:54:05.594Z,13.58
2023-01-01T10:55:05.619Z,13.68
2023-01-01T10:56:05.550Z,13.73
2023-01-01T10:57:05.804Z,13.9
2023-01-01T10:58:05.784Z,13.9
2023-01-01T10:59:05.555Z,14.01
2023-01-01T11:00:05.532Z,14.08
2023-01-01T11:01:06.587Z,14.13
2023-01-01T11:02:06.430Z,14.2
2023-01-01T11:03:05.906Z,14.2
2023-01-01T11:04:06.570Z,14.3
2023-01-01T11:05:21.341Z,14.28
2023-01-01T11:06:06.567Z,14.3
2023-01-01T11:07:06.531Z,14.33
2023-01-01T11:08:06.556Z,14.31
2023-01-01T11:09:06.562Z,14.26
2023-01-01T11:10:09.458Z,14.28
2023-01-01T11:11:06.540Z,14.26
2023-01-01T11:13:20.385Z,14.38
2023-01-01T11:14:19.900Z,14.3
2023-01-01T11:15:20.115Z,14.34
2023-01-01T11:16:20.597Z,14.31
2023-01-01T11:17:19.834Z,14.23
2023-01-01T11:18:20.132Z,14.13
2023-01-01T11:19:20.352Z,14.19
2023-01-01T11:20:20.138Z,14.2
2023-01-01T11:21:20.317Z,14.2
2023-01-01T11:22:20.049Z,14.13
2023-01-01T11:23:20.308Z,14.05
2023-01-01T11:24:20.312Z,14.12
2023-01-01T11:25:20.271Z,14.11
2023-01-01T11:26:20.279Z,14.09
2023-01-01T11:27:20.280Z,14.13
2023-01-01T11:28:20.267Z,14.11
2023-01-01T11:29:20.006Z,14.09
2023-01-01T11:30:20.259Z,14.11
2023-01-01T11:31:20.602Z,14.09
2023-01-01T11:32:20.303Z,14.09
2023-01-01T11:33:20.212Z,14.12
2023-01-01T11:34:20.206Z,14.09
2023-01-01T11:35:20.201Z,14.08
2023-01-01T11:36:20.181Z,14.09
2023-01-01T11:37:20.186Z,14.16
2023-01-01T11:38:23.158Z,14.11
2023-01-01T11:39:20.163Z,14.13
2023-01-01T11:40:19.887Z,14.12
2023-01-01T11:41:19.894Z,14.11
2023-01-01T11:42:19.864Z,14.06
2023-01-01T11:43:20.112Z,14.05
2023-01-01T11:44:19.852Z,14.05
2023-01-01T11:45:20.116Z,14.11
2023-01-01T11:46:20.319Z,14.05
2023-01-01T11:47:20.090Z,13.97
2023-01-01T11:48:20.144Z,14.03
2023-01-01T11:49:20.074Z,14.02
2023-01-01T11:50:20.068Z,13.99
2023-01-01T11:51:20.045Z,13.97
2023-01-01T11:52:20.036Z,14.02
2023-01-01T11:53:19.781Z,13.99
2023-01-01T11:54:20.012Z,13.94
2023-01-01T11:55:19.774Z,13.97
2023-01-01T11:56:19.996Z,13.94
2023-01-01T11:57:19.757Z,13.99
2023-01-01T11:58:24.485Z,14.02
2023-01-01T11:59:19.735Z,13.99
2023-01-01T12:00:19.978Z,14.01
2023-01-01T12:01:20.120Z,13.97
2023-01-01T12:02:19.865Z,13.97
2023-01-01T12:03:19.915Z,14.06
2023-01-01T12:04:20.168Z,13.94
2023-01-01T12:05:19.683Z,14.09
2023-01-01T12:06:19.679Z,14.08
2023-01-01T12:07:19.646Z,14.13
2023-01-01T12:08:19.892Z,14.15
2023-01-01T12:09:23.685Z,14.24
2023-01-01T12:10:19.943Z,14.3
2023-01-01T12:11:19.869Z,14.28
2023-01-01T12:12:19.641Z,14.27
2023-01-01T12:13:19.579Z,14.3
2023-01-01T12:14:19.605Z,14.33
2023-01-01T12:15:19.837Z,14.38
2023-01-01T12:16:19.837Z,14.46
2023-01-01T12:17:19.559Z,14.39
2023-01-01T12:18:19.824Z,14.45
2023-01-01T12:19:19.795Z,14.51
2023-01-01T12:20:20.073Z,14.48
2023-01-01T12:21:19.790Z,14.49
2023-01-01T12:22:19.548Z,14.49
2023-01-01T12:23:19.771Z,14.51
2023-01-01T12:24:19.752Z,14.44
2023-01-01T12:25:19.501Z,14.34
2023-01-01T12:26:19.503Z,14.31
2023-01-01T12:27:19.200Z,14.44
2023-01-01T12:28:19.454Z,14.34
2023-01-01T12:29:19.695Z,14.31
2023-01-01T12:30:19.780Z,14.27
2023-01-01T12:31:19.273Z,14.27
2023-01-01T12:32:19.418Z,14.27
2023-01-01T12:33:19.673Z,14.26
2023-01-01T12:34:19.746Z,14.27
2023-01-01T12:35:19.151Z,14.27
2023-01-01T12:36:19.685Z,14.27
2023-01-01T12:37:19.374Z,14.27
2023-01-01T12:38:19.376Z,14.27
2023-01-01T12:39:19.605Z,14.27
2023-01-01T12:40:27.519Z,14.28
2023-01-01T12:41:19.338Z,14.27
2023-01-01T12:42:19.352Z,14.26
2023-01-01T12:43:19.082Z,14.26
2023-01-01T12:44:19.590Z,14.24
2023-01-01T12:45:19.083Z,14.19
2023-01-01T12:46:19.437Z,14.28
2023-01-01T12:47:19.293Z,14.31
2023-01-01T12:48:19.534Z,14.28
2023-01-01T12:49:19.556Z,14.26
2023-01-01T12:50:19.310Z,14.28
2023-01-01T12:51:19.502Z,14.3
2023-01-01T12:52:19.650Z,14.3
2023-01-01T12:53:19.498Z,14.45
2023-01-01T12:54:19.478Z,14.36
2023-01-01T12:55:19.452Z,14.34
2023-01-01T12:56:27.330Z,14.44
2023-01-01T12:57:18.936Z,14.36
2023-01-01T12:58:19.469Z,14.41
2023-01-01T12:59:19.456Z,14.34
2023-01-01T13:00:19.723Z,14.46
2023-01-01T13:01:20.278Z,14.36
2023-01-01T13:02:20.190Z,14.31
2023-01-01T13:03:19.835Z,14.34
2023-01-01T13:04:19.675Z,14.3
2023-01-01T13:05:19.406Z,14.26
2023-01-01T13:06:29.117Z,14.26
2023-01-01T13:07:19.130Z,14.26
2023-01-01T13:08:19.794Z,14.24
2023-01-01T13:09:19.395Z,14.23
2023-01-01T13:10:19.688Z,14.2
2023-01-01T13:11:19.603Z,14.16
2023-01-01T13:12:19.632Z,14.19
2023-01-01T13:13:19.591Z,14.2
2023-01-01T13:14:19.319Z,14.2
2023-01-01T13:15:19.344Z,14.09
2023-01-01T13:16:19.675Z,14.09